Terminal Aerodrome Forecast
Issued by NWS

Home | Current Version | Previous Version | Text Only | Print | Product List | Glossary Off
Versions: 1 2 3 4 5 6 7 8 9 10 11 12 13 14 15 16 17 18 19 20 21

000
FTUS42 KMHX 032337
TAFPGV
TAF
KPGV 032337Z 0400/0424 18005KT 3SM -RADZ BR SCT004 OVC008
      WS020/22040KT
     FM040600 22010KT 2SM BR OVC004
     FM041430 23012G18KT P6SM SCT007 OVC015
     FM041800 22015G22KT P6SM SCT025 BKN040
      AMD LTD TO CLD VIS AND WIND=

USA.gov is the U.S. government's official web portal to all federal, state and local government web resources and services.